Time;durP1;ratioP1;P1;durP2;ratioP2;P2;SDS_P1;SDS_P2;PMS_P1;PMS_P2;Temp;Humidity;BMP_temperature;BMP_pressure;BME280_temperature;BME280_humidity;BME280_pressure;Samples;Min_cycle;Max_cycle;Signal;HPM_P1;HPM_P2
2021/08/07 00:02:20;;;;;;;0.40;0.20;;;16.30;99.90;;;;;;5094430;28;20377;-80
2021/08/07 00:04:47;;;;;;;0.40;0.20;;;16.30;99.90;;;;;;5094528;28;20381;-80
2021/08/07 00:07:13;;;;;;;0.40;0.20;;;16.30;99.90;;;;;;5093970;28;20378;-79
2021/08/07 00:09:38;;;;;;;0.40;0.20;;;16.30;99.90;;;;;;5094094;28;20439;-81
2021/08/07 00:12:04;;;;;;;0.40;0.20;;;16.30;99.90;;;;;;5092787;28;20461;-79
2021/08/07 00:14:30;;;;;;;0.40;0.20;;;16.30;99.90;;;;;;5094147;28;20378;-80
2021/08/07 00:16:55;;;;;;;0.40;0.20;;;16.30;99.90;;;;;;5093426;28;20439;-78
2021/08/07 00:19:21;;;;;;;0.40;0.20;;;16.30;99.90;;;;;;5094199;28;20470;-79
2021/08/07 00:21:48;;;;;;;0.40;0.20;;;16.40;99.90;;;;;;5094211;28;20452;-80
2021/08/07 00:24:14;;;;;;;0.40;0.20;;;16.30;99.90;;;;;;5093812;28;20374;-79
2021/08/07 00:26:40;;;;;;;0.40;0.20;;;16.20;99.90;;;;;;5094009;28;20378;-80
2021/08/07 00:29:06;;;;;;;0.40;0.20;;;16.30;99.90;;;;;;5092902;28;20763;-79
2021/08/07 00:31:31;;;;;;;0.40;0.20;;;16.20;99.90;;;;;;5075677;28;20397;-80
2021/08/07 00:33:57;;;;;;;0.40;0.30;;;16.30;99.90;;;;;;5075262;28;20371;-79
2021/08/07 00:36:23;;;;;;;0.40;0.20;;;16.20;99.90;;;;;;5093595;28;20374;-79
2021/08/07 00:38:48;;;;;;;0.40;0.20;;;16.30;99.90;;;;;;5094017;28;20401;-80
2021/08/07 00:41:14;;;;;;;0.40;0.30;;;16.30;99.90;;;;;;5092902;28;20414;-79
2021/08/07 00:43:39;;;;;;;0.40;0.20;;;16.30;99.90;;;;;;5093667;28;20471;-79
2021/08/07 00:46:05;;;;;;;0.40;0.20;;;16.30;99.90;;;;;;5093151;28;20389;-78
2021/08/07 00:48:31;;;;;;;0.40;0.20;;;16.20;99.90;;;;;;5093363;28;20878;-78
2021/08/07 00:50:57;;;;;;;0.40;0.30;;;16.30;99.90;;;;;;5093288;28;20427;-79
2021/08/07 00:53:23;;;;;;;0.40;0.20;;;16.30;99.90;;;;;;5093459;28;20374;-79
2021/08/07 00:55:49;;;;;;;0.40;0.20;;;16.30;99.90;;;;;;5093527;28;20377;-79
2021/08/07 00:58:14;;;;;;;0.40;0.20;;;16.20;99.90;;;;;;5092567;28;20453;-79
2021/08/07 01:00:40;;;;;;;0.40;0.30;;;16.30;99.90;;;;;;5093053;28;20374;-79
2021/08/07 01:03:09;;;;;;;0.40;0.20;;;16.30;99.90;;;;;;5092304;28;20435;-79
2021/08/07 01:05:46;;;;;;;0.40;0.20;;;16.20;99.90;;;;;;5093333;28;20386;-80
2021/08/07 01:08:18;;;;;;;0.40;0.20;;;16.10;99.90;;;;;;5074468;28;20931;-80
2021/08/07 01:11:21;;;;;;;0.40;0.20;;;16.10;99.90;;;;;;5093175;28;20427;-79
2021/08/07 01:13:50;;;;;;;0.40;0.30;;;16.10;99.90;;;;;;5092956;28;20406;-80
2021/08/07 01:16:28;;;;;;;0.40;0.30;;;16.10;99.90;;;;;;5092429;28;20460;-80
2021/08/07 01:18:56;;;;;;;0.40;0.20;;;16.10;99.90;;;;;;5092024;28;20405;-79
2021/08/07 01:21:27;;;;;;;0.40;0.20;;;16.10;99.90;;;;;;5092722;28;20386;-80
2021/08/07 01:24:03;;;;;;;0.40;0.20;;;16.10;99.90;;;;;;5092688;28;20373;-76
2021/08/07 01:26:48;;;;;;;0.40;0.30;;;16.10;99.90;;;;;;5093167;28;20466;-79
2021/08/07 01:29:15;;;;;;;0.40;0.30;;;16.30;99.90;;;;;;5091712;28;20463;-80
2021/08/07 01:31:47;;;;;;;0.40;0.20;;;16.30;99.90;;;;;;5092733;28;20469;-80
2021/08/07 01:34:15;;;;;;;0.40;0.20;;;16.10;99.90;;;;;;5092055;28;20404;-80
2021/08/07 01:36:42;;;;;;;0.40;0.30;;;16.10;99.90;;;;;;5092407;28;20374;-80
2021/08/07 01:39:09;;;;;;;0.40;0.20;;;16.60;99.90;;;;;;5073479;28;20890;-80
2021/08/07 01:41:35;;;;;;;0.40;0.30;;;16.00;99.90;;;;;;5092386;28;20392;-80
2021/08/07 01:44:01;;;;;;;0.40;0.20;;;16.00;99.90;;;;;;5092142;28;20390;-79
2021/08/07 01:47:06;;;;;;;0.40;0.20;;;16.00;99.90;;;;;;5092702;28;20385;-79
2021/08/07 01:49:48;;;;;;;0.40;0.20;;;16.10;99.90;;;;;;5010113;28;20912;-78
2021/08/07 01:52:24;;;;;;;0.40;0.30;;;16.10;99.90;;;;;;5083719;28;21062;-80
2021/08/07 01:54:56;;;;;;;0.40;0.30;;;16.10;99.90;;;;;;5092687;28;20393;-80
2021/08/07 01:57:25;;;;;;;0.40;0.30;;;16.10;99.90;;;;;;5092270;28;20492;-79
2021/08/07 01:59:51;;;;;;;0.40;0.20;;;16.20;99.90;;;;;;5091832;28;20426;-80
2021/08/07 02:02:18;;;;;;;0.40;0.30;;;16.30;99.90;;;;;;5073405;28;20381;-79
2021/08/07 02:04:44;;;;;;;0.40;0.20;;;16.30;99.90;;;;;;5092087;28;20416;-79
2021/08/07 02:07:12;;;;;;;0.40;0.22;;;16.30;99.90;;;;;;5091768;28;20382;-80
2021/08/07 02:09:38;;;;;;;0.40;0.20;;;16.40;99.90;;;;;;5092355;28;20523;-78
2021/08/07 02:12:05;;;;;;;0.40;0.20;;;16.30;99.90;;;;;;5091521;28;20398;-78
2021/08/07 02:14:32;;;;;;;0.40;0.30;;;16.20;99.90;;;;;;5092134;28;20766;-77
2021/08/07 02:17:01;;;;;;;0.40;0.20;;;16.30;99.90;;;;;;5091231;28;20984;-78
2021/08/07 02:19:27;;;;;;;0.40;0.20;;;16.20;99.90;;;;;;5092007;28;20402;-78
2021/08/07 02:21:54;;;;;;;0.40;0.30;;;16.20;99.90;;;;;;5092090;28;20467;-78
2021/08/07 02:24:24;;;;;;;0.40;0.20;;;16.30;99.90;;;;;;5091168;28;20384;-80
2021/08/07 02:26:50;;;;;;;0.40;0.20;;;16.20;99.90;;;;;;5091831;28;20370;-80
2021/08/07 02:29:17;;;;;;;0.40;0.20;;;16.20;99.90;;;;;;5091027;28;20688;-80
2021/08/07 02:31:43;;;;;;;0.40;0.20;;;16.30;99.90;;;;;;5091996;28;20378;-80
2021/08/07 02:34:10;;;;;;;0.40;0.30;;;16.20;99.90;;;;;;5090344;28;20470;-80
2021/08/07 02:36:36;;;;;;;0.40;0.30;;;16.20;99.90;;;;;;5091682;28;20390;-80
2021/08/07 02:39:03;;;;;;;0.40;0.20;;;16.80;99.90;;;;;;5090610;28;20907;-80
2021/08/07 02:41:29;;;;;;;0.40;0.30;;;16.30;99.90;;;;;;5091588;28;20370;-80
2021/08/07 02:43:55;;;;;;;0.40;0.30;;;16.30;99.90;;;;;;5091441;28;20377;-80
2021/08/07 02:46:22;;;;;;;0.40;0.30;;;16.20;99.90;;;;;;5090728;28;20495;-80
2021/08/07 02:48:48;;;;;;;0.40;0.30;;;16.20;99.90;;;;;;5091483;28;20381;-80
2021/08/07 02:51:15;;;;;;;0.40;0.30;;;16.20;99.90;;;;;;5090976;28;20378;-80
2021/08/07 02:53:42;;;;;;;0.40;0.20;;;16.20;99.90;;;;;;5091486;28;20963;-82
2021/08/07 02:56:08;;;;;;;0.40;0.20;;;16.20;99.90;;;;;;5090896;28;20434;-78
2021/08/07 02:58:33;;;;;;;0.40;0.30;;;16.20;99.90;;;;;;5091243;28;20429;-78
2021/08/07 03:00:59;;;;;;;0.40;0.20;;;16.40;99.90;;;;;;5090609;28;20760;-78
2021/08/07 03:03:25;;;;;;;0.40;0.30;;;16.20;99.90;;;;;;5091115;28;20382;-81
2021/08/07 03:05:50;;;;;;;0.40;0.20;;;16.30;99.90;;;;;;5091512;28;20385;-80
2021/08/07 03:08:16;;;;;;;0.40;0.20;;;16.30;99.90;;;;;;5090397;28;20382;-79
2021/08/07 03:10:42;;;;;;;0.40;0.20;;;16.20;99.90;;;;;;5091446;28;20390;-80
2021/08/07 03:13:08;;;;;;;0.40;0.20;;;16.20;99.90;;;;;;5072574;28;20394;-79
2021/08/07 03:15:34;;;;;;;0.40;0.20;;;16.20;99.90;;;;;;5091247;28;20393;-79
2021/08/07 03:18:00;;;;;;;0.40;0.20;;;16.10;99.90;;;;;;5090675;28;20366;-77
2021/08/07 03:20:31;;;;;;;0.40;0.20;;;16.20;99.90;;;;;;5091165;28;20414;-79
2021/08/07 03:23:02;;;;;;;0.40;0.20;;;16.20;99.90;;;;;;5091305;28;20389;-79
2021/08/07 03:25:28;;;;;;;0.40;0.20;;;16.20;99.90;;;;;;5091095;28;20386;-78
2021/08/07 03:27:54;;;;;;;0.40;0.30;;;16.10;99.90;;;;;;5073043;28;20414;-78
2021/08/07 03:30:20;;;;;;;0.40;0.20;;;16.20;99.90;;;;;;5090893;28;20810;-79
2021/08/07 03:32:46;;;;;;;0.40;0.30;;;16.20;99.90;;;;;;5106856;28;20440;-79
2021/08/07 03:35:12;;;;;;;0.40;0.20;;;16.30;99.90;;;;;;5090585;28;20378;-78
2021/08/07 03:37:38;;;;;;;0.40;0.20;;;16.30;99.90;;;;;;5107062;28;20465;-79
2021/08/07 03:40:04;;;;;;;0.40;0.20;;;16.20;99.90;;;;;;5090635;28;20483;-79
2021/08/07 03:42:29;;;;;;;0.40;0.20;;;16.30;99.90;;;;;;5091067;28;20389;-79
2021/08/07 03:44:55;;;;;;;0.40;0.20;;;16.10;99.90;;;;;;5092271;28;20378;-79
2021/08/07 03:47:22;;;;;;;0.40;0.30;;;16.20;99.90;;;;;;5110077;28;20906;-78
2021/08/07 03:49:48;;;;;;;0.40;0.20;;;16.10;99.90;;;;;;5094684;28;20381;-78
2021/08/07 03:52:13;;;;;;;0.40;0.20;;;16.20;99.90;;;;;;5076333;28;20374;-81
2021/08/07 03:54:39;;;;;;;0.40;0.20;;;16.30;99.90;;;;;;5094975;28;20435;-79
2021/08/07 03:57:04;;;;;;;0.40;0.20;;;16.40;99.90;;;;;;5094001;28;20375;-79
2021/08/07 03:59:30;;;;;;;0.40;0.20;;;16.30;99.90;;;;;;5094377;28;20433;-79
2021/08/07 04:01:56;;;;;;;0.40;0.20;;;16.30;99.90;;;;;;5094541;28;20376;-79
2021/08/07 04:04:21;;;;;;;0.40;0.20;;;16.20;99.90;;;;;;5093801;28;20716;-78
2021/08/07 04:06:47;;;;;;;0.40;0.20;;;16.30;99.90;;;;;;5094170;28;20373;-79
2021/08/07 04:09:13;;;;;;;0.40;0.20;;;16.30;99.90;;;;;;5093500;28;20397;-78
2021/08/07 04:11:39;;;;;;;0.40;0.20;;;16.40;99.90;;;;;;5094466;28;20390;-78
2021/08/07 04:14:05;;;;;;;0.40;0.20;;;16.40;99.90;;;;;;5093578;28;20378;-77
2021/08/07 04:16:32;;;;;;;0.40;0.20;;;16.60;99.90;;;;;;5098690;28;20388;-80
2021/08/07 04:18:57;;;;;;;0.40;0.20;;;16.40;99.90;;;;;;5073804;28;20403;-78
2021/08/07 04:21:23;;;;;;;0.40;0.30;;;16.30;99.90;;;;;;5073287;28;20791;-78
2021/08/07 04:23:49;;;;;;;0.40;0.20;;;16.20;99.90;;;;;;5073971;28;20467;-78
2021/08/07 04:26:14;;;;;;;0.40;0.20;;;16.30;99.90;;;;;;5073372;28;20414;-78
2021/08/07 04:28:40;;;;;;;0.40;0.20;;;16.20;99.90;;;;;;5073271;28;20404;-78
2021/08/07 04:31:06;;;;;;;0.40;0.20;;;16.20;99.90;;;;;;5072932;28;20383;-78
2021/08/07 04:33:33;;;;;;;0.40;0.20;;;16.20;99.90;;;;;;5073741;28;20404;-79
2021/08/07 04:36:01;;;;;;;0.40;0.20;;;16.20;99.90;;;;;;5073838;28;20388;-79
2021/08/07 04:38:27;;;;;;;0.40;0.20;;;16.20;99.90;;;;;;5073143;28;20411;-78
2021/08/07 04:40:53;;;;;;;0.40;0.20;;;16.10;99.90;;;;;;5073715;28;20437;-79
2021/08/07 04:43:19;;;;;;;0.40;0.20;;;16.20;99.90;;;;;;5073097;28;20383;-78
2021/08/07 04:45:44;;;;;;;0.40;0.30;;;16.00;99.90;;;;;;5073857;28;20380;-79
2021/08/07 04:48:10;;;;;;;0.40;0.20;;;16.10;99.90;;;;;;5073430;28;20856;-78
2021/08/07 04:50:36;;;;;;;0.40;0.20;;;16.10;99.90;;;;;;5073894;28;20384;-78
2021/08/07 04:53:05;;;;;;;0.40;0.20;;;16.00;99.90;;;;;;5073831;28;20380;-79
2021/08/07 04:55:30;;;;;;;0.40;0.25;;;16.10;99.90;;;;;;5073601;28;20376;-78
2021/08/07 04:57:56;;;;;;;0.40;0.20;;;16.10;99.90;;;;;;5073055;28;20376;-81
2021/08/07 05:00:23;;;;;;;0.40;0.30;;;16.20;99.90;;;;;;5072698;28;20826;-81
2021/08/07 05:02:48;;;;;;;0.40;0.20;;;16.10;99.90;;;;;;5073316;28;20372;-78
2021/08/07 05:05:16;;;;;;;0.40;0.20;;;16.00;99.90;;;;;;5072536;28;20429;-77
2021/08/07 05:07:42;;;;;;;0.40;0.20;;;16.00;99.90;;;;;;5073193;28;20438;-80
2021/08/07 05:10:11;;;;;;;0.40;0.20;;;16.10;99.90;;;;;;5072309;28;20724;-81
2021/08/07 05:12:37;;;;;;;0.40;0.20;;;16.10;99.90;;;;;;5072907;28;20391;-81
2021/08/07 05:15:04;;;;;;;0.40;0.20;;;16.00;99.90;;;;;;5072856;28;20457;-81
2021/08/07 05:17:29;;;;;;;0.40;0.20;;;16.00;99.90;;;;;;5091760;28;20389;-80
2021/08/07 05:19:56;;;;;;;0.40;0.20;;;16.00;99.90;;;;;;5092915;28;20405;-80
2021/08/07 05:22:22;;;;;;;0.40;0.20;;;16.00;99.90;;;;;;5108145;28;20422;-78
2021/08/07 05:24:48;;;;;;;0.40;0.20;;;16.20;99.90;;;;;;5093037;28;20382;-78
2021/08/07 05:27:14;;;;;;;0.40;0.20;;;16.40;99.90;;;;;;5073951;28;20435;-79
2021/08/07 05:29:40;;;;;;;0.40;0.20;;;16.50;99.90;;;;;;5092853;28;20456;-78
2021/08/07 05:32:06;;;;;;;0.40;0.20;;;16.40;99.90;;;;;;5092957;28;20841;-78
2021/08/07 05:34:32;;;;;;;0.40;0.20;;;16.50;99.90;;;;;;5092452;28;20382;-81
2021/08/07 05:36:57;;;;;;;0.40;0.20;;;16.70;99.90;;;;;;5092708;28;20881;-78
2021/08/07 05:39:23;;;;;;;0.40;0.20;;;16.60;99.90;;;;;;5092130;28;20412;-77
2021/08/07 05:41:49;;;;;;;0.40;0.30;;;16.80;99.90;;;;;;5092947;28;20389;-79
2021/08/07 05:44:14;;;;;;;0.40;0.20;;;16.90;99.90;;;;;;5092152;28;20731;-80
2021/08/07 05:46:40;;;;;;;0.40;0.20;;;16.90;99.90;;;;;;5092454;28;20482;-78
2021/08/07 05:49:06;;;;;;;0.40;0.30;;;16.90;99.90;;;;;;5092810;28;20382;-80
2021/08/07 05:51:34;;;;;;;0.40;0.20;;;17.00;99.90;;;;;;5091649;28;20389;-78
2021/08/07 05:54:01;;;;;;;0.40;0.20;;;17.00;99.90;;;;;;5092373;28;20742;-78
2021/08/07 05:56:27;;;;;;;0.40;0.30;;;17.00;99.90;;;;;;5091793;28;20461;-80
2021/08/07 05:58:52;;;;;;;0.40;0.20;;;17.00;99.90;;;;;;5091999;28;20835;-80
2021/08/07 06:01:18;;;;;;;0.40;0.20;;;16.90;99.90;;;;;;5091625;28;20378;-79
2021/08/07 06:03:43;;;;;;;0.40;0.20;;;16.90;99.90;;;;;;5092431;28;20373;-79
2021/08/07 06:06:09;;;;;;;0.40;0.20;;;16.80;99.90;;;;;;5091650;28;20385;-77
2021/08/07 06:08:35;;;;;;;0.40;0.27;;;16.80;99.90;;;;;;5091294;28;20424;-78
2021/08/07 06:11:01;;;;;;;0.40;0.20;;;17.00;99.90;;;;;;5092110;28;20704;-78
2021/08/07 06:13:26;;;;;;;0.40;0.20;;;17.10;99.90;;;;;;5091178;28;20366;-78
2021/08/07 06:15:52;;;;;;;0.40;0.30;;;17.10;99.90;;;;;;5091613;28;20866;-78
2021/08/07 06:18:18;;;;;;;0.40;0.30;;;17.30;99.90;;;;;;5091094;28;20374;-78
2021/08/07 06:20:44;;;;;;;0.40;0.30;;;17.20;99.90;;;;;;5091943;28;20385;-78
2021/08/07 06:23:11;;;;;;;0.40;0.30;;;17.20;99.90;;;;;;5091463;28;20902;-77
2021/08/07 06:25:37;;;;;;;0.40;0.20;;;17.30;99.90;;;;;;5091712;28;20378;-76
2021/08/07 06:28:03;;;;;;;0.40;0.20;;;17.40;99.90;;;;;;5091159;28;20398;-78
2021/08/07 06:30:29;;;;;;;0.40;0.20;;;17.40;99.90;;;;;;5072865;28;20480;-78
2021/08/07 06:32:55;;;;;;;0.40;0.20;;;17.40;99.90;;;;;;5092100;28;20853;-79
2021/08/07 06:35:21;;;;;;;0.40;0.20;;;17.30;99.90;;;;;;5090877;28;20485;-79
2021/08/07 06:37:47;;;;;;;0.40;0.20;;;17.40;99.90;;;;;;5091377;28;20374;-79
2021/08/07 06:40:14;;;;;;;0.50;0.40;;;17.40;99.90;;;;;;5091056;28;20442;-78
2021/08/07 06:42:40;;;;;;;0.40;0.20;;;17.40;99.90;;;;;;5091412;28;20814;-79
2021/08/07 06:45:07;;;;;;;0.40;0.30;;;17.50;99.90;;;;;;5091706;28;20876;-79
2021/08/07 06:47:33;;;;;;;0.40;0.30;;;17.50;99.90;;;;;;5090874;28;20789;-79
2021/08/07 06:49:59;;;;;;;0.40;0.20;;;17.60;99.90;;;;;;5091876;28;20511;-79
2021/08/07 06:52:24;;;;;;;0.40;0.20;;;17.70;99.90;;;;;;5091218;28;20865;-79
2021/08/07 06:54:50;;;;;;;0.40;0.30;;;17.80;99.90;;;;;;5091483;28;20377;-79
2021/08/07 06:57:20;;;;;;;0.40;0.20;;;17.90;99.90;;;;;;5090900;28;20377;-79
2021/08/07 06:59:46;;;;;;;0.40;0.30;;;17.80;99.90;;;;;;5091131;28;20421;-79
2021/08/07 07:02:12;;;;;;;0.40;0.20;;;17.90;99.90;;;;;;5091131;28;20388;-79
2021/08/07 07:04:37;;;;;;;0.40;0.30;;;17.90;99.90;;;;;;5091233;28;20862;-78
2021/08/07 07:07:04;;;;;;;0.40;0.20;;;17.90;99.90;;;;;;5091205;28;20370;-79
2021/08/07 07:09:30;;;;;;;0.40;0.20;;;17.90;99.90;;;;;;5091043;28;20390;-79
2021/08/07 07:11:56;;;;;;;0.40;0.30;;;17.80;99.90;;;;;;5091283;28;20370;-79
2021/08/07 07:14:22;;;;;;;0.40;0.30;;;17.90;99.90;;;;;;5090742;28;20378;-79
2021/08/07 07:16:47;;;;;;;0.40;0.30;;;17.90;99.90;;;;;;5091233;28;20904;-79
2021/08/07 07:19:14;;;;;;;0.40;0.30;;;17.80;99.90;;;;;;5091033;28;20402;-79
2021/08/07 07:21:40;;;;;;;0.40;0.20;;;17.90;99.90;;;;;;5095031;28;20382;-79
2021/08/07 07:24:07;;;;;;;0.40;0.20;;;17.90;99.90;;;;;;5095265;28;20386;-79
2021/08/07 07:26:33;;;;;;;0.40;0.20;;;17.90;99.90;;;;;;5076339;28;20397;-79
2021/08/07 07:28:59;;;;;;;0.40;0.20;;;17.90;99.90;;;;;;5095135;28;20455;-80
2021/08/07 07:31:25;;;;;;;0.40;0.30;;;17.90;99.90;;;;;;5094499;28;20373;-79
2021/08/07 07:33:51;;;;;;;0.40;0.20;;;17.90;99.90;;;;;;5095600;28;20382;-80
2021/08/07 07:36:17;;;;;;;0.40;0.30;;;17.90;99.90;;;;;;5076260;28;20850;-79
2021/08/07 07:38:43;;;;;;;0.40;0.20;;;17.90;99.90;;;;;;5095120;28;20409;-80
2021/08/07 07:41:10;;;;;;;0.40;0.30;;;17.80;99.90;;;;;;5094934;28;20841;-80
2021/08/07 07:43:36;;;;;;;0.40;0.20;;;17.80;99.90;;;;;;5093966;28;20370;-80
2021/08/07 07:46:03;;;;;;;0.40;0.30;;;17.80;99.90;;;;;;5094889;28;20375;-80
2021/08/07 07:48:29;;;;;;;0.40;0.20;;;17.80;99.90;;;;;;5076009;28;20481;-80
2021/08/07 07:50:54;;;;;;;0.40;0.20;;;17.80;99.90;;;;;;5094767;28;20813;-80
2021/08/07 07:53:20;;;;;;;0.40;0.20;;;17.80;99.90;;;;;;5093741;28;20389;-79
2021/08/07 07:55:46;;;;;;;0.40;0.20;;;17.60;99.90;;;;;;5094657;28;20381;-79
2021/08/07 07:58:12;;;;;;;0.40;0.30;;;17.70;99.90;;;;;;5094371;28;20393;-79
2021/08/07 08:00:40;;;;;;;0.40;0.20;;;17.80;99.90;;;;;;5075765;28;20432;-79
2021/08/07 08:03:06;;;;;;;0.40;0.20;;;17.90;99.90;;;;;;5094455;28;20366;-79
2021/08/07 08:05:32;;;;;;;0.40;0.20;;;17.90;99.90;;;;;;5093588;28;20390;-79
2021/08/07 08:07:58;;;;;;;0.40;0.20;;;17.90;99.90;;;;;;5094377;28;20370;-80
2021/08/07 08:10:24;;;;;;;0.40;0.20;;;17.90;99.90;;;;;;5094119;28;20382;-79
2021/08/07 08:12:50;;;;;;;0.40;0.20;;;17.90;99.90;;;;;;5093901;28;20806;-79
2021/08/07 08:15:18;;;;;;;0.40;0.20;;;17.80;99.90;;;;;;5075982;28;20466;-79
2021/08/07 08:17:43;;;;;;;0.40;0.20;;;17.60;99.90;;;;;;5094350;28;20386;-79
2021/08/07 08:20:10;;;;;;;0.40;0.20;;;17.70;99.90;;;;;;5094107;28;20857;-80
2021/08/07 08:22:36;;;;;;;0.40;0.20;;;17.50;99.90;;;;;;5093171;28;20865;-80
2021/08/07 08:25:03;;;;;;;0.40;0.20;;;17.40;99.90;;;;;;5094276;28;20465;-79
2021/08/07 08:27:29;;;;;;;0.40;0.30;;;17.40;99.90;;;;;;5093016;28;20378;-79
2021/08/07 08:29:57;;;;;;;0.40;0.20;;;17.40;99.90;;;;;;5093335;28;20409;-79
2021/08/07 08:32:24;;;;;;;0.40;0.20;;;17.40;99.90;;;;;;5091433;28;20540;-78
2021/08/07 08:34:50;;;;;;;0.40;0.20;;;17.40;99.90;;;;;;5109534;28;20386;-79
2021/08/07 08:37:15;;;;;;;0.40;0.20;;;17.30;99.90;;;;;;5093919;28;20916;-79
2021/08/07 08:39:41;;;;;;;0.40;0.20;;;17.20;99.90;;;;;;5093094;28;20405;-77
2021/08/07 08:42:07;;;;;;;0.40;0.20;;;17.30;99.90;;;;;;5093606;28;20397;-79
2021/08/07 08:44:37;;;;;;;0.40;0.20;;;17.10;99.90;;;;;;5093047;28;20439;-80
2021/08/07 08:47:06;;;;;;;0.40;0.20;;;16.90;99.90;;;;;;5093386;28;20382;-79
2021/08/07 08:49:33;;;;;;;0.40;0.20;;;17.00;99.90;;;;;;5092662;28;20889;-79
2021/08/07 08:52:00;;;;;;;0.40;0.30;;;16.90;99.90;;;;;;5093172;28;20427;-79
2021/08/07 08:54:27;;;;;;;0.40;0.20;;;17.00;99.90;;;;;;5092933;28;20439;-80
2021/08/07 08:56:54;;;;;;;0.40;0.30;;;16.90;99.90;;;;;;5093526;28;20374;-80
2021/08/07 08:59:23;;;;;;;0.40;0.20;;;16.70;99.90;;;;;;5093027;28;20504;-77
2021/08/07 09:01:51;;;;;;;0.40;0.20;;;16.90;99.90;;;;;;5093465;28;20401;-77
2021/08/07 09:04:17;;;;;;;0.40;0.20;;;16.80;99.90;;;;;;5093317;28;20370;-79
2021/08/07 09:06:43;;;;;;;0.40;0.20;;;16.70;99.90;;;;;;5092629;28;20866;-79
2021/08/07 09:09:13;;;;;;;0.40;0.20;;;16.70;99.90;;;;;;5093164;28;20389;-77
2021/08/07 09:11:46;;;;;;;0.40;0.20;;;16.80;99.90;;;;;;5092670;28;20470;-77
2021/08/07 09:14:17;;;;;;;0.40;0.20;;;16.90;99.90;;;;;;5092983;28;20375;-79
2021/08/07 09:16:58;;;;;;;0.50;0.50;;;17.00;99.90;;;;;;5092328;28;20449;-80
2021/08/07 09:19:28;;;;;;;0.40;0.20;;;16.90;99.90;;;;;;5092528;28;20417;-76
2021/08/07 09:22:07;;;;;;;0.40;0.22;;;16.90;99.90;;;;;;5092988;28;20378;-79
2021/08/07 09:24:53;;;;;;;0.40;0.20;;;17.00;99.90;;;;;;5092224;28;20390;-79
2021/08/07 09:27:31;;;;;;;0.40;0.30;;;17.00;99.90;;;;;;5092370;28;20390;-79
2021/08/07 09:29:58;;;;;;;0.40;0.30;;;17.00;99.90;;;;;;5092931;28;20471;-79
2021/08/07 09:32:24;;;;;;;0.40;0.20;;;17.00;99.90;;;;;;5092238;28;20405;-77
2021/08/07 09:35:08;;;;;;;0.40;0.20;;;17.00;99.90;;;;;;5092624;28;20381;-79
2021/08/07 09:37:34;;;;;;;0.40;0.20;;;17.10;99.90;;;;;;5073908;28;20394;-79
2021/08/07 09:40:01;;;;;;;0.40;0.20;;;17.20;99.90;;;;;;5092504;28;20440;-77
2021/08/07 09:42:28;;;;;;;0.40;0.20;;;17.20;99.90;;;;;;5091868;28;20438;-76
2021/08/07 09:45:09;;;;;;;0.40;0.20;;;17.10;99.90;;;;;;5092471;28;20798;-77
2021/08/07 09:47:42;;;;;;;0.40;0.20;;;17.30;99.90;;;;;;5091946;28;20384;-79
2021/08/07 09:50:26;;;;;;;0.40;0.30;;;17.30;99.90;;;;;;5074255;28;20818;-79
2021/08/07 09:52:52;;;;;;;0.40;0.20;;;17.20;99.90;;;;;;5092402;28;20546;-78
2021/08/07 09:55:18;;;;;;;0.40;0.30;;;17.60;99.90;;;;;;5074310;28;20429;-77
2021/08/07 09:57:43;;;;;;;0.40;0.20;;;17.40;99.90;;;;;;5091581;28;20878;-79
2021/08/07 10:00:10;;;;;;;0.40;0.20;;;17.50;99.90;;;;;;5073863;28;20491;-80
2021/08/07 10:02:39;;;;;;;0.40;0.20;;;17.50;99.90;;;;;;5091803;28;20397;-79
2021/08/07 10:05:08;;;;;;;0.40;0.20;;;17.50;99.90;;;;;;5073916;28;20386;-79
2021/08/07 10:07:34;;;;;;;0.40;0.20;;;17.40;99.90;;;;;;5091525;28;20387;-79
2021/08/07 10:10:00;;;;;;;0.40;0.30;;;17.60;99.90;;;;;;5073837;28;20750;-79
2021/08/07 10:12:26;;;;;;;0.40;0.30;;;17.50;99.90;;;;;;5091526;28;20374;-78
2021/08/07 10:14:52;;;;;;;0.40;0.20;;;17.60;99.90;;;;;;5091864;28;20380;-79
2021/08/07 10:17:23;;;;;;;0.40;0.30;;;17.60;99.90;;;;;;5091866;28;20381;-80
2021/08/07 10:19:49;;;;;;;0.40;0.20;;;17.60;99.90;;;;;;5073043;28;20793;-79
2021/08/07 10:22:16;;;;;;;0.40;0.30;;;17.80;99.90;;;;;;5073819;28;20733;-80
2021/08/07 10:24:45;;;;;;;0.40;0.20;;;17.60;99.90;;;;;;5091422;28;20909;-78
2021/08/07 10:27:11;;;;;;;0.40;0.30;;;17.60;99.90;;;;;;5091636;28;20907;-78
2021/08/07 10:29:44;;;;;;;0.40;0.20;;;17.60;99.90;;;;;;5091147;28;20466;-78
2021/08/07 10:32:12;;;;;;;0.40;0.30;;;17.60;99.90;;;;;;5091442;28;20900;-76
2021/08/07 10:34:38;;;;;;;0.40;0.20;;;17.70;99.90;;;;;;5090949;28;20378;-76
2021/08/07 10:37:04;;;;;;;0.40;0.20;;;17.80;99.90;;;;;;5091707;28;20734;-78
2021/08/07 10:39:31;;;;;;;0.40;0.30;;;17.70;99.90;;;;;;5090629;28;20406;-77
2021/08/07 10:41:59;;;;;;;0.40;0.20;;;17.80;99.90;;;;;;5091342;28;20751;-78
2021/08/07 10:44:26;;;;;;;0.40;0.20;;;17.70;99.90;;;;;;5091705;28;20757;-77
2021/08/07 10:46:54;;;;;;;0.40;0.20;;;17.70;99.90;;;;;;5091544;28;20377;-77
2021/08/07 10:49:37;;;;;;;0.40;0.28;;;17.70;99.90;;;;;;5091530;28;20474;-76
2021/08/07 10:52:26;;;;;;;0.40;0.30;;;17.90;99.90;;;;;;5091433;28;20389;-78
2021/08/07 10:54:53;;;;;;;0.40;0.20;;;18.00;99.90;;;;;;5090365;28;20408;-77
2021/08/07 10:57:40;;;;;;;0.40;0.30;;;18.00;99.90;;;;;;5091839;28;20386;-77
2021/08/07 11:00:14;;;;;;;0.40;0.30;;;18.00;99.90;;;;;;5090999;28;20410;-77
2021/08/07 11:02:40;;;;;;;0.40;0.30;;;17.90;99.90;;;;;;5090561;28;20390;-77
2021/08/07 11:05:07;;;;;;;0.40;0.30;;;17.80;99.90;;;;;;5073602;28;20469;-77
2021/08/07 11:07:32;;;;;;;0.40;0.30;;;17.70;99.90;;;;;;5090715;28;20768;-77
2021/08/07 11:10:15;;;;;;;0.40;0.23;;;17.60;99.90;;;;;;5091300;28;20439;-78
2021/08/07 11:12:43;;;;;;;0.40;0.20;;;17.70;99.90;;;;;;5106275;28;20394;-78
2021/08/07 11:15:14;;;;;;;0.40;0.20;;;17.70;99.90;;;;;;5091035;28;20397;-78
2021/08/07 11:17:45;;;;;;;0.40;0.20;;;17.50;99.90;;;;;;5090696;28;20378;-78
2021/08/07 11:20:13;;;;;;;0.40;0.30;;;17.40;99.90;;;;;;5091164;28;20409;-78
2021/08/07 11:22:42;;;;;;;0.40;0.20;;;17.40;99.90;;;;;;5090685;28;20381;-77
2021/08/07 11:25:22;;;;;;;0.40;0.20;;;17.30;99.90;;;;;;5091184;28;20389;-78
2021/08/07 11:27:58;;;;;;;0.40;0.20;;;17.20;99.90;;;;;;5090378;28;20381;-82
2021/08/07 11:30:33;;;;;;;0.40;0.20;;;17.40;99.90;;;;;;5091124;28;20406;-81
2021/08/07 11:33:00;;;;;;;0.40;0.20;;;17.20;99.90;;;;;;5073231;28;20735;-82
2021/08/07 11:35:52;;;;;;;0.40;0.30;;;17.10;99.90;;;;;;5090946;28;20374;-82
2021/08/07 11:38:18;;;;;;;0.40;0.20;;;17.10;99.90;;;;;;5090157;28;20394;-81
2021/08/07 11:40:47;;;;;;;0.40;0.20;;;16.80;99.90;;;;;;5072206;28;20759;-81
2021/08/07 11:43:17;;;;;;;0.40;0.20;;;17.00;99.90;;;;;;5091014;28;20390;-81
2021/08/07 11:45:53;;;;;;;0.40;0.20;;;16.90;99.90;;;;;;5090370;28;20389;-81
2021/08/07 11:48:32;;;;;;;0.40;0.28;;;16.70;99.90;;;;;;5090744;28;20374;-81
2021/08/07 11:51:01;;;;;;;0.40;0.20;;;16.90;99.90;;;;;;5090870;28;20475;-80
2021/08/07 11:53:28;;;;;;;0.40;0.20;;;16.60;99.90;;;;;;5090866;28;20376;-80
2021/08/07 11:56:02;;;;;;;0.40;0.20;;;16.70;99.90;;;;;;5090173;28;20435;-80
2021/08/07 11:58:29;;;;;;;0.40;0.20;;;16.80;99.90;;;;;;5090760;28;20393;-80
2021/08/07 12:00:59;;;;;;;0.40;0.20;;;16.70;99.90;;;;;;5090581;28;20773;-80
2021/08/07 12:03:26;;;;;;;0.40;0.20;;;16.80;99.90;;;;;;5090806;28;20717;-80
2021/08/07 12:05:54;;;;;;;0.40;0.30;;;16.70;99.90;;;;;;5072018;28;20394;-80
2021/08/07 12:08:20;;;;;;;0.40;0.20;;;16.60;99.90;;;;;;5094062;28;20382;-79
2021/08/07 12:10:48;;;;;;;0.40;0.20;;;16.50;99.90;;;;;;5094127;28;20382;-80
2021/08/07 12:13:32;;;;;;;0.40;0.20;;;16.40;99.90;;;;;;5094284;28;20414;-79
2021/08/07 12:16:09;;;;;;;0.40;0.20;;;16.60;99.90;;;;;;5093832;28;20381;-79
2021/08/07 12:18:44;;;;;;;0.40;0.20;;;16.40;99.90;;;;;;5093648;28;20843;-78
2021/08/07 12:21:15;;;;;;;0.40;0.20;;;16.50;99.90;;;;;;5094208;28;20393;-79
2021/08/07 12:23:46;;;;;;;0.40;0.20;;;16.50;99.90;;;;;;5093691;28;20374;-79
2021/08/07 12:26:14;;;;;;;0.40;0.20;;;16.50;99.90;;;;;;5094141;28;20470;-79
2021/08/07 12:28:40;;;;;;;0.40;0.20;;;16.50;99.90;;;;;;5108926;28;20782;-78
2021/08/07 12:31:05;;;;;;;0.40;0.20;;;16.50;99.90;;;;;;5109629;28;20456;-79
2021/08/07 12:33:35;;;;;;;0.40;0.20;;;18.90;99.90;;;;;;5093981;28;20412;-79
2021/08/07 12:36:17;;;;;;;0.40;0.20;;;16.60;99.90;;;;;;5093509;28;20892;-79
2021/08/07 12:38:52;;;;;;;0.40;0.20;;;16.50;99.90;;;;;;5108651;28;20382;-79
2021/08/07 12:41:20;;;;;;;0.40;0.30;;;16.60;99.90;;;;;;5093526;28;20387;-79
2021/08/07 12:43:46;;;;;;;0.40;0.20;;;18.20;99.90;;;;;;5074843;28;20390;-79
2021/08/07 12:46:18;;;;;;;0.40;0.20;;;16.60;99.90;;;;;;5093279;28;20453;-79
2021/08/07 12:48:51;;;;;;;0.40;0.20;;;16.50;99.90;;;;;;5108850;28;20393;-78
2021/08/07 12:51:35;;;;;;;0.40;0.20;;;16.50;99.90;;;;;;5093518;28;20374;-79
2021/08/07 12:54:03;;;;;;;0.40;0.20;;;16.50;99.90;;;;;;5093633;28;20374;-79